sensor_id;sensor_type;location;lat;lon;timestamp;P1;durP1;ratioP1;P2;durP2;ratioP2
58784;SDS011;44557;51.862;19.378;2024-03-22T00:00:50;28.20;;;23.30;;
58784;SDS011;44557;51.862;19.378;2024-03-22T00:03:26;30.90;;;22.80;;
58784;SDS011;44557;51.862;19.378;2024-03-22T00:05:44;29.40;;;22.20;;
58784;SDS011;44557;51.862;19.378;2024-03-22T00:07:59;29.30;;;22.30;;
58784;SDS011;44557;51.862;19.378;2024-03-22T00:10:40;27.10;;;21.80;;
58784;SDS011;44557;51.862;19.378;2024-03-22T00:12:55;28.90;;;21.80;;
58784;SDS011;44557;51.862;19.378;2024-03-22T00:15:10;31.40;;;22.10;;
58784;SDS011;44557;51.862;19.378;2024-03-22T00:17:50;27.60;;;21.50;;
58784;SDS011;44557;51.862;19.378;2024-03-22T00:20:08;27.60;;;21.30;;
58784;SDS011;44557;51.862;19.378;2024-03-22T00:22:23;26.90;;;20.70;;
58784;SDS011;44557;51.862;19.378;2024-03-22T00:25:02;29.60;;;21.30;;
58784;SDS011;44557;51.862;19.378;2024-03-22T00:27:33;27.00;;;21.40;;
58784;SDS011;44557;51.862;19.378;2024-03-22T00:30:09;28.10;;;21.40;;
58784;SDS011;44557;51.862;19.378;2024-03-22T00:32:44;29.80;;;21.80;;
58784;SDS011;44557;51.862;19.378;2024-03-22T00:34:59;29.30;;;21.60;;
58784;SDS011;44557;51.862;19.378;2024-03-22T00:37:14;25.70;;;21.40;;
58784;SDS011;44557;51.862;19.378;2024-03-22T00:39:48;27.30;;;21.60;;
58784;SDS011;44557;51.862;19.378;2024-03-22T00:42:03;24.90;;;19.50;;
58784;SDS011;44557;51.862;19.378;2024-03-22T00:44:21;26.20;;;20.70;;
58784;SDS011;44557;51.862;19.378;2024-03-22T00:46:35;27.60;;;20.70;;
58784;SDS011;44557;51.862;19.378;2024-03-22T00:49:13;26.40;;;20.60;;
58784;SDS011;44557;51.862;19.378;2024-03-22T00:51:48;25.40;;;20.00;;
58784;SDS011;44557;51.862;19.378;2024-03-22T00:54:02;27.00;;;20.50;;
58784;SDS011;44557;51.862;19.378;2024-03-22T00:56:36;28.00;;;20.20;;
58784;SDS011;44557;51.862;19.378;2024-03-22T00:58:54;24.40;;;19.30;;
58784;SDS011;44557;51.862;19.378;2024-03-22T01:01:33;24.70;;;19.30;;
58784;SDS011;44557;51.862;19.378;2024-03-22T01:03:50;24.20;;;18.50;;
58784;SDS011;44557;51.862;19.378;2024-03-22T01:06:24;24.10;;;18.90;;
58784;SDS011;44557;51.862;19.378;2024-03-22T01:08:39;23.20;;;18.40;;
58784;SDS011;44557;51.862;19.378;2024-03-22T01:10:54;23.90;;;18.40;;
58784;SDS011;44557;51.862;19.378;2024-03-22T01:13:08;23.30;;;18.40;;
58784;SDS011;44557;51.862;19.378;2024-03-22T01:15:23;23.20;;;17.80;;
58784;SDS011;44557;51.862;19.378;2024-03-22T01:17:40;23.90;;;18.10;;
58784;SDS011;44557;51.862;19.378;2024-03-22T01:19:55;23.80;;;17.70;;
58784;SDS011;44557;51.862;19.378;2024-03-22T01:22:10;22.60;;;17.10;;
58784;SDS011;44557;51.862;19.378;2024-03-22T01:24:45;21.90;;;16.60;;
58784;SDS011;44557;51.862;19.378;2024-03-22T01:27:19;22.10;;;16.50;;
58784;SDS011;44557;51.862;19.378;2024-03-22T01:29:56;21.00;;;16.00;;
58784;SDS011;44557;51.862;19.378;2024-03-22T01:32:11;23.60;;;17.20;;
58784;SDS011;44557;51.862;19.378;2024-03-22T01:34:25;21.90;;;17.20;;
58784;SDS011;44557;51.862;19.378;2024-03-22T01:36:40;22.30;;;16.60;;
58784;SDS011;44557;51.862;19.378;2024-03-22T01:38:59;22.80;;;16.10;;
58784;SDS011;44557;51.862;19.378;2024-03-22T01:41:16;20.70;;;16.10;;
58784;SDS011;44557;51.862;19.378;2024-03-22T01:43:34;20.80;;;16.30;;
58784;SDS011;44557;51.862;19.378;2024-03-22T01:48:47;21.70;;;17.00;;
58784;SDS011;44557;51.862;19.378;2024-03-22T01:51:02;21.20;;;16.40;;
58784;SDS011;44557;51.862;19.378;2024-03-22T01:53:19;20.10;;;15.20;;
58784;SDS011;44557;51.862;19.378;2024-03-22T01:56:06;20.80;;;15.20;;
58784;SDS011;44557;51.862;19.378;2024-03-22T01:58:20;19.10;;;15.30;;
58784;SDS011;44557;51.862;19.378;2024-03-22T02:00:35;19.80;;;15.80;;
58784;SDS011;44557;51.862;19.378;2024-03-22T02:02:49;21.20;;;15.70;;
58784;SDS011;44557;51.862;19.378;2024-03-22T02:05:14;20.10;;;15.10;;
58784;SDS011;44557;51.862;19.378;2024-03-22T02:07:29;20.50;;;15.40;;
58784;SDS011;44557;51.862;19.378;2024-03-22T02:10:11;19.20;;;14.90;;
58784;SDS011;44557;51.862;19.378;2024-03-22T02:12:52;17.90;;;14.70;;
58784;SDS011;44557;51.862;19.378;2024-03-22T02:15:12;18.90;;;14.80;;
58784;SDS011;44557;51.862;19.378;2024-03-22T02:17:41;18.70;;;14.40;;
58784;SDS011;44557;51.862;19.378;2024-03-22T02:19:55;17.60;;;13.40;;
58784;SDS011;44557;51.862;19.378;2024-03-22T02:22:10;18.00;;;13.40;;
58784;SDS011;44557;51.862;19.378;2024-03-22T02:24:37;18.00;;;13.60;;
58784;SDS011;44557;51.862;19.378;2024-03-22T02:27:19;17.90;;;13.40;;
58784;SDS011;44557;51.862;19.378;2024-03-22T02:29:34;17.30;;;12.70;;
58784;SDS011;44557;51.862;19.378;2024-03-22T02:31:49;15.40;;;12.50;;
58784;SDS011;44557;51.862;19.378;2024-03-22T02:34:04;15.40;;;12.20;;
58784;SDS011;44557;51.862;19.378;2024-03-22T02:36:19;17.00;;;12.10;;
58784;SDS011;44557;51.862;19.378;2024-03-22T02:38:33;16.50;;;12.50;;
58784;SDS011;44557;51.862;19.378;2024-03-22T02:40:48;16.50;;;12.90;;
58784;SDS011;44557;51.862;19.378;2024-03-22T02:43:05;16.00;;;12.50;;
58784;SDS011;44557;51.862;19.378;2024-03-22T02:45:19;15.80;;;12.30;;
58784;SDS011;44557;51.862;19.378;2024-03-22T02:47:36;15.70;;;12.30;;
58784;SDS011;44557;51.862;19.378;2024-03-22T02:49:53;18.50;;;12.60;;
58784;SDS011;44557;51.862;19.378;2024-03-22T02:52:08;16.60;;;12.20;;
58784;SDS011;44557;51.862;19.378;2024-03-22T02:54:23;16.80;;;13.20;;
58784;SDS011;44557;51.862;19.378;2024-03-22T02:56:40;17.50;;;13.40;;
58784;SDS011;44557;51.862;19.378;2024-03-22T02:58:58;17.20;;;11.80;;
58784;SDS011;44557;51.862;19.378;2024-03-22T03:01:12;15.80;;;11.40;;
58784;SDS011;44557;51.862;19.378;2024-03-22T03:03:29;15.00;;;11.40;;
58784;SDS011;44557;51.862;19.378;2024-03-22T03:05:55;16.10;;;12.00;;
58784;SDS011;44557;51.862;19.378;2024-03-22T03:08:10;18.30;;;12.60;;
58784;SDS011;44557;51.862;19.378;2024-03-22T03:10:54;14.10;;;11.00;;
58784;SDS011;44557;51.862;19.378;2024-03-22T03:13:36;13.70;;;11.00;;
58784;SDS011;44557;51.862;19.378;2024-03-22T03:15:51;15.50;;;12.30;;
58784;SDS011;44557;51.862;19.378;2024-03-22T03:18:31;17.70;;;11.40;;
58784;SDS011;44557;51.862;19.378;2024-03-22T03:20:57;13.80;;;11.00;;
58784;SDS011;44557;51.862;19.378;2024-03-22T03:23:18;14.20;;;11.50;;
58784;SDS011;44557;51.862;19.378;2024-03-22T03:25:43;14.60;;;11.00;;
58784;SDS011;44557;51.862;19.378;2024-03-22T03:28:04;13.00;;;10.20;;
58784;SDS011;44557;51.862;19.378;2024-03-22T03:30:23;14.10;;;10.90;;
58784;SDS011;44557;51.862;19.378;2024-03-22T03:32:47;14.10;;;10.90;;
58784;SDS011;44557;51.862;19.378;2024-03-22T03:35:12;14.10;;;10.40;;
58784;SDS011;44557;51.862;19.378;2024-03-22T03:37:58;13.90;;;10.50;;
58784;SDS011;44557;51.862;19.378;2024-03-22T03:40:43;16.40;;;11.00;;
58784;SDS011;44557;51.862;19.378;2024-03-22T03:42:58;13.90;;;10.80;;
58784;SDS011;44557;51.862;19.378;2024-03-22T03:45:15;13.00;;;10.00;;
58784;SDS011;44557;51.862;19.378;2024-03-22T03:47:46;13.10;;;10.10;;
58784;SDS011;44557;51.862;19.378;2024-03-22T03:50:00;13.80;;;10.10;;
58784;SDS011;44557;51.862;19.378;2024-03-22T03:52:15;13.30;;;10.20;;
58784;SDS011;44557;51.862;19.378;2024-03-22T03:54:57;14.10;;;9.90;;
58784;SDS011;44557;51.862;19.378;2024-03-22T03:57:40;13.80;;;9.60;;
58784;SDS011;44557;51.862;19.378;2024-03-22T03:59:55;12.60;;;9.60;;
58784;SDS011;44557;51.862;19.378;2024-03-22T04:02:09;12.30;;;9.00;;
58784;SDS011;44557;51.862;19.378;2024-03-22T04:04:24;12.90;;;9.50;;
58784;SDS011;44557;51.862;19.378;2024-03-22T04:06:39;12.90;;;9.00;;
58784;SDS011;44557;51.862;19.378;2024-03-22T04:08:54;13.20;;;10.20;;
58784;SDS011;44557;51.862;19.378;2024-03-22T04:11:36;12.90;;;9.60;;
58784;SDS011;44557;51.862;19.378;2024-03-22T04:13:58;13.30;;;9.70;;
58784;SDS011;44557;51.862;19.378;2024-03-22T04:16:40;12.60;;;9.30;;
58784;SDS011;44557;51.862;19.378;2024-03-22T04:18:54;13.60;;;9.20;;
58784;SDS011;44557;51.862;19.378;2024-03-22T04:21:06;12.80;;;9.10;;
58784;SDS011;44557;51.862;19.378;2024-03-22T04:23:37;14.10;;;9.90;;
58784;SDS011;44557;51.862;19.378;2024-03-22T04:25:56;13.10;;;9.50;;
58784;SDS011;44557;51.862;19.378;2024-03-22T04:28:08;13.00;;;9.40;;
58784;SDS011;44557;51.862;19.378;2024-03-22T04:30:22;12.80;;;9.10;;
58784;SDS011;44557;51.862;19.378;2024-03-22T04:33:05;10.60;;;7.70;;
58784;SDS011;44557;51.862;19.378;2024-03-22T04:35:20;11.80;;;8.70;;
58784;SDS011;44557;51.862;19.378;2024-03-22T04:40:04;12.40;;;8.70;;
58784;SDS011;44557;51.862;19.378;2024-03-22T04:42:19;11.70;;;8.50;;
58784;SDS011;44557;51.862;19.378;2024-03-22T04:47:18;12.40;;;7.90;;
58784;SDS011;44557;51.862;19.378;2024-03-22T04:49:39;11.60;;;8.40;;
58784;SDS011;44557;51.862;19.378;2024-03-22T04:52:09;11.90;;;8.40;;
58784;SDS011;44557;51.862;19.378;2024-03-22T04:54:24;11.30;;;8.30;;
58784;SDS011;44557;51.862;19.378;2024-03-22T04:56:43;11.80;;;8.50;;
58784;SDS011;44557;51.862;19.378;2024-03-22T04:59:08;12.20;;;8.60;;
58784;SDS011;44557;51.862;19.378;2024-03-22T05:01:33;12.10;;;8.60;;
58784;SDS011;44557;51.862;19.378;2024-03-22T05:03:57;11.30;;;8.20;;
58784;SDS011;44557;51.862;19.378;2024-03-22T05:06:18;10.40;;;7.80;;
58784;SDS011;44557;51.862;19.378;2024-03-22T05:08:40;11.40;;;8.10;;
58784;SDS011;44557;51.862;19.378;2024-03-22T05:11:00;11.20;;;8.50;;
58784;SDS011;44557;51.862;19.378;2024-03-22T05:13:39;11.10;;;8.20;;
58784;SDS011;44557;51.862;19.378;2024-03-22T05:16:01;22.90;;;16.40;;
58784;SDS011;44557;51.862;19.378;2024-03-22T05:18:39;14.20;;;10.70;;
58784;SDS011;44557;51.862;19.378;2024-03-22T05:21:00;12.20;;;8.20;;
58784;SDS011;44557;51.862;19.378;2024-03-22T05:23:21;12.90;;;8.10;;
58784;SDS011;44557;51.862;19.378;2024-03-22T05:25:46;12.40;;;8.60;;
58784;SDS011;44557;51.862;19.378;2024-03-22T05:28:08;11.20;;;7.40;;
58784;SDS011;44557;51.862;19.378;2024-03-22T05:33:27;12.00;;;8.50;;
58784;SDS011;44557;51.862;19.378;2024-03-22T05:35:51;13.00;;;9.10;;
58784;SDS011;44557;51.862;19.378;2024-03-22T05:38:11;13.20;;;9.00;;
58784;SDS011;44557;51.862;19.378;2024-03-22T05:40:31;11.90;;;8.70;;
58784;SDS011;44557;51.862;19.378;2024-03-22T05:42:56;11.20;;;8.00;;
58784;SDS011;44557;51.862;19.378;2024-03-22T05:47:52;12.60;;;8.80;;
58784;SDS011;44557;51.862;19.378;2024-03-22T05:55:23;10.90;;;8.00;;
58784;SDS011;44557;51.862;19.378;2024-03-22T06:13:16;11.90;;;7.90;;
58784;SDS011;44557;51.862;19.378;2024-03-22T06:15:56;11.70;;;8.50;;
58784;SDS011;44557;51.862;19.378;2024-03-22T06:18:38;12.50;;;8.60;;
58784;SDS011;44557;51.862;19.378;2024-03-22T06:23:44;11.40;;;8.40;;
58784;SDS011;44557;51.862;19.378;2024-03-22T06:25:58;12.90;;;8.70;;
58784;SDS011;44557;51.862;19.378;2024-03-22T06:28:16;12.10;;;9.00;;
58784;SDS011;44557;51.862;19.378;2024-03-22T06:30:33;11.40;;;8.20;;
58784;SDS011;44557;51.862;19.378;2024-03-22T06:38:15;11.90;;;9.00;;
58784;SDS011;44557;51.862;19.378;2024-03-22T06:58:41;18.30;;;15.60;;
58784;SDS011;44557;51.862;19.378;2024-03-22T07:19:14;17.00;;;12.50;;
58784;SDS011;44557;51.862;19.378;2024-03-22T07:21:29;16.70;;;12.00;;
58784;SDS011;44557;51.862;19.378;2024-03-22T07:34:17;13.10;;;9.80;;
58784;SDS011;44557;51.862;19.378;2024-03-22T07:36:42;13.00;;;9.50;;
58784;SDS011;44557;51.862;19.378;2024-03-22T07:39:02;12.40;;;9.30;;
58784;SDS011;44557;51.862;19.378;2024-03-22T07:41:42;11.90;;;8.70;;
58784;SDS011;44557;51.862;19.378;2024-03-22T07:44:07;12.30;;;8.70;;
58784;SDS011;44557;51.862;19.378;2024-03-22T07:46:29;12.40;;;8.90;;
58784;SDS011;44557;51.862;19.378;2024-03-22T07:48:46;12.90;;;9.30;;
58784;SDS011;44557;51.862;19.378;2024-03-22T07:51:04;12.90;;;9.50;;
58784;SDS011;44557;51.862;19.378;2024-03-22T07:53:29;13.00;;;9.60;;
58784;SDS011;44557;51.862;19.378;2024-03-22T07:55:51;12.60;;;8.60;;
58784;SDS011;44557;51.862;19.378;2024-03-22T07:58:34;13.80;;;9.30;;
58784;SDS011;44557;51.862;19.378;2024-03-22T08:01:17;12.00;;;8.50;;
58784;SDS011;44557;51.862;19.378;2024-03-22T08:03:41;12.80;;;8.70;;
58784;SDS011;44557;51.862;19.378;2024-03-22T08:05:56;13.10;;;8.90;;
58784;SDS011;44557;51.862;19.378;2024-03-22T08:08:10;12.60;;;9.20;;
58784;SDS011;44557;51.862;19.378;2024-03-22T08:10:25;13.50;;;9.90;;
58784;SDS011;44557;51.862;19.378;2024-03-22T08:12:40;13.10;;;9.10;;
58784;SDS011;44557;51.862;19.378;2024-03-22T08:14:55;14.50;;;9.60;;
58784;SDS011;44557;51.862;19.378;2024-03-22T08:17:17;12.50;;;9.30;;
58784;SDS011;44557;51.862;19.378;2024-03-22T08:19:39;12.80;;;9.20;;
58784;SDS011;44557;51.862;19.378;2024-03-22T08:22:23;12.90;;;8.60;;
58784;SDS011;44557;51.862;19.378;2024-03-22T08:25:06;12.70;;;9.10;;
58784;SDS011;44557;51.862;19.378;2024-03-22T08:27:21;13.40;;;9.80;;
58784;SDS011;44557;51.862;19.378;2024-03-22T08:29:37;12.70;;;9.30;;
58784;SDS011;44557;51.862;19.378;2024-03-22T08:32:20;13.00;;;9.90;;
58784;SDS011;44557;51.862;19.378;2024-03-22T08:34:34;13.40;;;10.00;;
58784;SDS011;44557;51.862;19.378;2024-03-22T08:36:49;13.20;;;10.10;;
58784;SDS011;44557;51.862;19.378;2024-03-22T08:39:04;14.10;;;10.00;;
58784;SDS011;44557;51.862;19.378;2024-03-22T08:41:19;14.60;;;10.20;;
58784;SDS011;44557;51.862;19.378;2024-03-22T08:44:02;15.50;;;11.20;;
58784;SDS011;44557;51.862;19.378;2024-03-22T08:46:42;14.80;;;11.00;;
58784;SDS011;44557;51.862;19.378;2024-03-22T08:49:04;16.10;;;12.10;;
58784;SDS011;44557;51.862;19.378;2024-03-22T08:51:48;15.90;;;11.90;;
58784;SDS011;44557;51.862;19.378;2024-03-22T08:54:03;17.20;;;13.00;;
58784;SDS011;44557;51.862;19.378;2024-03-22T08:56:46;17.20;;;13.30;;
58784;SDS011;44557;51.862;19.378;2024-03-22T08:59:00;17.40;;;12.70;;
58784;SDS011;44557;51.862;19.378;2024-03-22T09:01:44;18.20;;;14.00;;
58784;SDS011;44557;51.862;19.378;2024-03-22T09:03:58;19.40;;;14.30;;
58784;SDS011;44557;51.862;19.378;2024-03-22T09:06:13;18.00;;;13.30;;
58784;SDS011;44557;51.862;19.378;2024-03-22T09:08:35;17.70;;;13.70;;
58784;SDS011;44557;51.862;19.378;2024-03-22T09:11:04;17.80;;;13.80;;
58784;SDS011;44557;51.862;19.378;2024-03-22T09:13:18;18.50;;;13.90;;
58784;SDS011;44557;51.862;19.378;2024-03-22T09:15:33;21.40;;;14.80;;
58784;SDS011;44557;51.862;19.378;2024-03-22T09:17:48;18.10;;;14.20;;
58784;SDS011;44557;51.862;19.378;2024-03-22T09:20:04;19.50;;;14.50;;
58784;SDS011;44557;51.862;19.378;2024-03-22T09:22:21;19.20;;;14.70;;
58784;SDS011;44557;51.862;19.378;2024-03-22T09:24:36;19.70;;;15.10;;
58784;SDS011;44557;51.862;19.378;2024-03-22T09:26:51;19.10;;;14.30;;
58784;SDS011;44557;51.862;19.378;2024-03-22T09:29:36;19.10;;;14.50;;
58784;SDS011;44557;51.862;19.378;2024-03-22T09:32:19;18.50;;;13.10;;
58784;SDS011;44557;51.862;19.378;2024-03-22T09:34:33;20.00;;;14.50;;
58784;SDS011;44557;51.862;19.378;2024-03-22T09:36:48;18.90;;;14.10;;
58784;SDS011;44557;51.862;19.378;2024-03-22T09:39:03;19.70;;;14.40;;
58784;SDS011;44557;51.862;19.378;2024-03-22T09:41:47;18.70;;;14.20;;
58784;SDS011;44557;51.862;19.378;2024-03-22T09:44:01;18.90;;;14.40;;
58784;SDS011;44557;51.862;19.378;2024-03-22T09:46:16;19.00;;;14.20;;
58784;SDS011;44557;51.862;19.378;2024-03-22T09:48:31;19.60;;;14.50;;
58784;SDS011;44557;51.862;19.378;2024-03-22T09:50:47;20.00;;;14.50;;
58784;SDS011;44557;51.862;19.378;2024-03-22T09:53:08;21.10;;;15.00;;
58784;SDS011;44557;51.862;19.378;2024-03-22T09:55:32;20.20;;;15.10;;
58784;SDS011;44557;51.862;19.378;2024-03-22T09:58:16;20.60;;;15.10;;
58784;SDS011;44557;51.862;19.378;2024-03-22T10:01:00;20.70;;;15.60;;
58784;SDS011;44557;51.862;19.378;2024-03-22T10:03:15;19.80;;;15.00;;
58784;SDS011;44557;51.862;19.378;2024-03-22T10:05:41;21.60;;;15.70;;
58784;SDS011;44557;51.862;19.378;2024-03-22T10:08:03;20.20;;;14.30;;
58784;SDS011;44557;51.862;19.378;2024-03-22T10:10:25;18.50;;;13.40;;
58784;SDS011;44557;51.862;19.378;2024-03-22T10:18:21;17.80;;;13.20;;
58784;SDS011;44557;51.862;19.378;2024-03-22T10:21:09;18.20;;;12.60;;
58784;SDS011;44557;51.862;19.378;2024-03-22T10:23:38;16.90;;;12.50;;
58784;SDS011;44557;51.862;19.378;2024-03-22T10:25:53;15.90;;;12.20;;
58784;SDS011;44557;51.862;19.378;2024-03-22T10:28:37;18.10;;;12.70;;
58784;SDS011;44557;51.862;19.378;2024-03-22T10:30:51;17.60;;;13.10;;
58784;SDS011;44557;51.862;19.378;2024-03-22T10:33:32;18.00;;;13.60;;
58784;SDS011;44557;51.862;19.378;2024-03-22T10:35:54;18.70;;;14.10;;
58784;SDS011;44557;51.862;19.378;2024-03-22T10:38:23;20.00;;;15.30;;
58784;SDS011;44557;51.862;19.378;2024-03-22T10:41:18;20.80;;;15.30;;
58784;SDS011;44557;51.862;19.378;2024-03-22T10:43:40;20.80;;;15.80;;
58784;SDS011;44557;51.862;19.378;2024-03-22T10:46:05;23.20;;;16.30;;
58784;SDS011;44557;51.862;19.378;2024-03-22T10:48:28;22.10;;;16.90;;
58784;SDS011;44557;51.862;19.378;2024-03-22T10:51:03;25.20;;;18.00;;
58784;SDS011;44557;51.862;19.378;2024-03-22T10:53:18;25.00;;;18.50;;
58784;SDS011;44557;51.862;19.378;2024-03-22T10:56:01;28.00;;;20.30;;
58784;SDS011;44557;51.862;19.378;2024-03-22T10:58:21;26.20;;;19.40;;
58784;SDS011;44557;51.862;19.378;2024-03-22T11:00:34;25.60;;;19.30;;
58784;SDS011;44557;51.862;19.378;2024-03-22T11:02:48;24.80;;;18.30;;
58784;SDS011;44557;51.862;19.378;2024-03-22T11:05:23;27.80;;;19.60;;
58784;SDS011;44557;51.862;19.378;2024-03-22T11:07:38;27.10;;;19.40;;
58784;SDS011;44557;51.862;19.378;2024-03-22T11:10:16;24.40;;;17.90;;
58784;SDS011;44557;51.862;19.378;2024-03-22T11:12:30;24.60;;;17.60;;
58784;SDS011;44557;51.862;19.378;2024-03-22T11:15:06;23.50;;;17.30;;
58784;SDS011;44557;51.862;19.378;2024-03-22T11:17:21;23.30;;;17.10;;
58784;SDS011;44557;51.862;19.378;2024-03-22T11:20:05;23.90;;;17.90;;
58784;SDS011;44557;51.862;19.378;2024-03-22T11:22:19;22.00;;;16.60;;
58784;SDS011;44557;51.862;19.378;2024-03-22T11:24:58;22.90;;;17.90;;
58784;SDS011;44557;51.862;19.378;2024-03-22T11:27:16;22.90;;;16.80;;
58784;SDS011;44557;51.862;19.378;2024-03-22T11:30:00;23.50;;;16.80;;
58784;SDS011;44557;51.862;19.378;2024-03-22T11:32:15;20.90;;;15.80;;
58784;SDS011;44557;51.862;19.378;2024-03-22T11:34:59;24.00;;;17.70;;
58784;SDS011;44557;51.862;19.378;2024-03-22T11:37:13;22.60;;;16.20;;
58784;SDS011;44557;51.862;19.378;2024-03-22T11:39:28;24.40;;;17.10;;
58784;SDS011;44557;51.862;19.378;2024-03-22T11:41:43;25.10;;;17.70;;
58784;SDS011;44557;51.862;19.378;2024-03-22T11:43:58;24.70;;;18.30;;
58784;SDS011;44557;51.862;19.378;2024-03-22T11:46:16;23.60;;;17.20;;
58784;SDS011;44557;51.862;19.378;2024-03-22T11:48:58;22.90;;;17.00;;
58784;SDS011;44557;51.862;19.378;2024-03-22T11:51:10;23.00;;;16.40;;
58784;SDS011;44557;51.862;19.378;2024-03-22T11:53:28;22.60;;;16.60;;
58784;SDS011;44557;51.862;19.378;2024-03-22T11:55:50;23.10;;;16.80;;
58784;SDS011;44557;51.862;19.378;2024-03-22T11:58:31;23.00;;;16.30;;
58784;SDS011;44557;51.862;19.378;2024-03-22T12:00:53;22.70;;;16.10;;
58784;SDS011;44557;51.862;19.378;2024-03-22T12:03:15;24.00;;;16.10;;
58784;SDS011;44557;51.862;19.378;2024-03-22T12:05:37;19.50;;;14.90;;
58784;SDS011;44557;51.862;19.378;2024-03-22T12:08:18;21.90;;;15.60;;
58784;SDS011;44557;51.862;19.378;2024-03-22T12:10:40;20.50;;;14.90;;
58784;SDS011;44557;51.862;19.378;2024-03-22T12:13:21;20.70;;;15.10;;
58784;SDS011;44557;51.862;19.378;2024-03-22T12:16:03;22.10;;;14.90;;
58784;SDS011;44557;51.862;19.378;2024-03-22T12:18:24;18.50;;;13.70;;
58784;SDS011;44557;51.862;19.378;2024-03-22T12:21:05;20.10;;;13.80;;
58784;SDS011;44557;51.862;19.378;2024-03-22T12:23:27;19.40;;;14.10;;
58784;SDS011;44557;51.862;19.378;2024-03-22T12:26:11;20.20;;;15.40;;
58784;SDS011;44557;51.862;19.378;2024-03-22T12:28:46;20.70;;;15.10;;
58784;SDS011;44557;51.862;19.378;2024-03-22T12:31:00;19.00;;;14.30;;
58784;SDS011;44557;51.862;19.378;2024-03-22T12:33:15;18.70;;;13.90;;
58784;SDS011;44557;51.862;19.378;2024-03-22T12:35:30;19.20;;;14.30;;
58784;SDS011;44557;51.862;19.378;2024-03-22T12:37:45;19.20;;;14.80;;
58784;SDS011;44557;51.862;19.378;2024-03-22T12:40:24;19.60;;;14.60;;
58784;SDS011;44557;51.862;19.378;2024-03-22T12:42:39;19.40;;;13.70;;
58784;SDS011;44557;51.862;19.378;2024-03-22T12:44:54;19.70;;;15.60;;
58784;SDS011;44557;51.862;19.378;2024-03-22T12:47:16;19.40;;;15.00;;
58784;SDS011;44557;51.862;19.378;2024-03-22T12:50:00;20.70;;;15.80;;
58784;SDS011;44557;51.862;19.378;2024-03-22T12:52:15;20.30;;;15.20;;
58784;SDS011;44557;51.862;19.378;2024-03-22T12:54:59;20.30;;;16.40;;
58784;SDS011;44557;51.862;19.378;2024-03-22T12:57:13;22.30;;;16.60;;
58784;SDS011;44557;51.862;19.378;2024-03-22T12:59:28;22.50;;;17.00;;
58784;SDS011;44557;51.862;19.378;2024-03-22T13:01:50;21.20;;;16.40;;
58784;SDS011;44557;51.862;19.378;2024-03-22T13:04:19;22.20;;;17.50;;
58784;SDS011;44557;51.862;19.378;2024-03-22T13:06:33;21.90;;;17.70;;
58784;SDS011;44557;51.862;19.378;2024-03-22T13:08:48;22.80;;;17.40;;
58784;SDS011;44557;51.862;19.378;2024-03-22T13:11:03;22.80;;;16.40;;
58784;SDS011;44557;51.862;19.378;2024-03-22T13:13:18;23.10;;;18.50;;
58784;SDS011;44557;51.862;19.378;2024-03-22T13:15:58;21.40;;;17.70;;
58784;SDS011;44557;51.862;19.378;2024-03-22T13:18:20;22.50;;;17.70;;
58784;SDS011;44557;51.862;19.378;2024-03-22T13:20:42;21.90;;;17.60;;
58784;SDS011;44557;51.862;19.378;2024-03-22T13:23:04;24.50;;;18.30;;
58784;SDS011;44557;51.862;19.378;2024-03-22T13:25:45;21.60;;;17.00;;
58784;SDS011;44557;51.862;19.378;2024-03-22T13:28:07;21.40;;;16.70;;
58784;SDS011;44557;51.862;19.378;2024-03-22T13:30:29;21.10;;;16.30;;
58784;SDS011;44557;51.862;19.378;2024-03-22T13:33:13;20.60;;;16.20;;
58784;SDS011;44557;51.862;19.378;2024-03-22T13:35:30;22.50;;;16.50;;
58784;SDS011;44557;51.862;19.378;2024-03-22T13:37:45;19.90;;;15.10;;
58784;SDS011;44557;51.862;19.378;2024-03-22T13:40:00;20.60;;;15.70;;
58784;SDS011;44557;51.862;19.378;2024-03-22T13:42:43;20.30;;;14.50;;
58784;SDS011;44557;51.862;19.378;2024-03-22T13:45:23;19.40;;;14.80;;
58784;SDS011;44557;51.862;19.378;2024-03-22T13:47:38;19.60;;;14.20;;
58784;SDS011;44557;51.862;19.378;2024-03-22T13:49:53;19.50;;;14.50;;
58784;SDS011;44557;51.862;19.378;2024-03-22T13:54:48;21.10;;;15.80;;
58784;SDS011;44557;51.862;19.378;2024-03-22T13:57:03;20.80;;;15.30;;
58784;SDS011;44557;51.862;19.378;2024-03-22T13:59:18;20.90;;;15.30;;
58784;SDS011;44557;51.862;19.378;2024-03-22T14:01:33;19.00;;;15.50;;
58784;SDS011;44557;51.862;19.378;2024-03-22T14:04:12;20.30;;;16.30;;
58784;SDS011;44557;51.862;19.378;2024-03-22T14:06:27;20.80;;;16.00;;
58784;SDS011;44557;51.862;19.378;2024-03-22T14:08:49;20.70;;;16.20;;
58784;SDS011;44557;51.862;19.378;2024-03-22T14:11:11;22.40;;;16.70;;
58784;SDS011;44557;51.862;19.378;2024-03-22T14:13:40;23.70;;;17.30;;
58784;SDS011;44557;51.862;19.378;2024-03-22T14:15:55;22.20;;;16.40;;
58784;SDS011;44557;51.862;19.378;2024-03-22T14:18:33;22.80;;;17.20;;
58784;SDS011;44557;51.862;19.378;2024-03-22T14:20:48;22.00;;;17.50;;
58784;SDS011;44557;51.862;19.378;2024-03-22T14:23:03;22.30;;;16.80;;
58784;SDS011;44557;51.862;19.378;2024-03-22T14:25:18;24.00;;;17.20;;
58784;SDS011;44557;51.862;19.378;2024-03-22T14:27:33;24.50;;;18.00;;
58784;SDS011;44557;51.862;19.378;2024-03-22T14:29:48;23.70;;;17.70;;
58784;SDS011;44557;51.862;19.378;2024-03-22T14:32:03;24.20;;;18.00;;
58784;SDS011;44557;51.862;19.378;2024-03-22T14:34:18;22.40;;;16.10;;
58784;SDS011;44557;51.862;19.378;2024-03-22T14:36:33;23.20;;;17.50;;
58784;SDS011;44557;51.862;19.378;2024-03-22T14:38:55;25.10;;;19.20;;
58784;SDS011;44557;51.862;19.378;2024-03-22T14:41:31;25.50;;;19.40;;
58784;SDS011;44557;51.862;19.378;2024-03-22T14:44:10;23.40;;;18.40;;
58784;SDS011;44557;51.862;19.378;2024-03-22T14:46:24;26.00;;;19.10;;
58784;SDS011;44557;51.862;19.378;2024-03-22T14:49:07;24.80;;;19.70;;
58784;SDS011;44557;51.862;19.378;2024-03-22T14:51:22;24.00;;;19.40;;
58784;SDS011;44557;51.862;19.378;2024-03-22T14:53:44;24.10;;;19.10;;
58784;SDS011;44557;51.862;19.378;2024-03-22T14:56:20;26.20;;;20.70;;
58784;SDS011;44557;51.862;19.378;2024-03-22T14:58:35;24.80;;;18.30;;
58784;SDS011;44557;51.862;19.378;2024-03-22T15:00:51;26.00;;;18.90;;
58784;SDS011;44557;51.862;19.378;2024-03-22T15:03:05;23.80;;;19.80;;
58784;SDS011;44557;51.862;19.378;2024-03-22T15:05:42;25.90;;;19.40;;
58784;SDS011;44557;51.862;19.378;2024-03-22T15:07:56;25.10;;;19.40;;
58784;SDS011;44557;51.862;19.378;2024-03-22T15:10:11;25.60;;;19.20;;
58784;SDS011;44557;51.862;19.378;2024-03-22T15:12:26;25.70;;;18.70;;
58784;SDS011;44557;51.862;19.378;2024-03-22T15:14:41;24.60;;;18.70;;
58784;SDS011;44557;51.862;19.378;2024-03-22T15:16:56;22.90;;;17.90;;
58784;SDS011;44557;51.862;19.378;2024-03-22T15:19:11;21.90;;;16.70;;
58784;SDS011;44557;51.862;19.378;2024-03-22T15:21:26;22.50;;;16.80;;
58784;SDS011;44557;51.862;19.378;2024-03-22T15:23:41;22.20;;;16.50;;
58784;SDS011;44557;51.862;19.378;2024-03-22T15:25:54;23.10;;;16.20;;